createdAt,value
2022-11-07T00:00:27.321Z,0.00
2022-11-07T00:01:27.364Z,0.00
2022-11-07T00:02:27.394Z,0.00
2022-11-07T00:03:27.315Z,0.00
2022-11-07T00:04:27.314Z,0.00
2022-11-07T00:05:27.316Z,0.00
2022-11-07T00:06:27.316Z,0.00
2022-11-07T00:07:27.317Z,0.00
2022-11-07T00:08:27.307Z,0.00
2022-11-07T00:09:27.303Z,0.00
2022-11-07T00:10:27.302Z,0.00
2022-11-07T00:11:27.307Z,0.00
2022-11-07T00:12:27.296Z,0.00
2022-11-07T00:13:27.299Z,0.00
2022-11-07T00:14:27.314Z,0.00
2022-11-07T00:15:27.300Z,0.00
2022-11-07T00:16:27.294Z,0.00
2022-11-07T00:17:27.295Z,0.00
2022-11-07T00:18:27.290Z,0.00
2022-11-07T00:19:27.285Z,0.00
2022-11-07T00:20:27.289Z,0.00
2022-11-07T00:21:27.281Z,0.00
2022-11-07T00:22:27.285Z,0.00
2022-11-07T00:23:27.276Z,0.00
2022-11-07T00:24:27.278Z,0.00
2022-11-07T00:25:27.275Z,0.00
2022-11-07T00:26:27.268Z,0.00
2022-11-07T00:27:27.328Z,0.00
2022-11-07T00:28:27.266Z,0.00
2022-11-07T00:29:27.263Z,0.00
2022-11-07T00:30:27.288Z,0.00
2022-11-07T00:31:27.262Z,0.00
2022-11-07T00:32:27.261Z,0.00
2022-11-07T00:33:27.262Z,0.00
2022-11-07T00:34:27.253Z,0.00
2022-11-07T00:35:27.257Z,0.00
2022-11-07T00:36:27.252Z,0.00
2022-11-07T00:37:27.247Z,0.00
2022-11-07T00:38:27.247Z,0.00
2022-11-07T00:39:27.247Z,0.00
2022-11-07T00:40:27.244Z,0.00
2022-11-07T00:41:27.250Z,0.00
2022-11-07T00:42:27.238Z,0.00
2022-11-07T00:43:27.239Z,0.00
2022-11-07T00:44:27.238Z,0.00
2022-11-07T00:45:27.230Z,0.00
2022-11-07T00:46:27.252Z,0.00
2022-11-07T00:47:27.231Z,0.00
2022-11-07T00:48:27.227Z,0.00
2022-11-07T00:49:27.226Z,0.00
2022-11-07T00:50:27.227Z,0.00
2022-11-07T00:51:27.221Z,0.00
2022-11-07T00:52:27.222Z,0.00
2022-11-07T00:53:27.219Z,0.00
2022-11-07T00:54:27.217Z,0.00
2022-11-07T00:55:27.214Z,0.00
2022-11-07T00:56:27.218Z,0.00
2022-11-07T00:57:27.212Z,0.00
2022-11-07T00:58:27.210Z,0.00
2022-11-07T00:59:27.216Z,0.00
2022-11-07T01:00:27.213Z,0.00
2022-11-07T01:01:27.382Z,0.00
2022-11-07T01:02:27.419Z,0.00
2022-11-07T01:03:27.200Z,0.00
2022-11-07T01:04:27.205Z,0.00
2022-11-07T01:05:27.195Z,0.00
2022-11-07T01:06:27.198Z,0.00
2022-11-07T01:07:27.194Z,0.00
2022-11-07T01:08:27.191Z,0.00
2022-11-07T01:09:27.188Z,0.00
2022-11-07T01:10:27.187Z,0.00
2022-11-07T01:11:27.185Z,0.00
2022-11-07T01:12:27.183Z,0.00
2022-11-07T01:13:27.187Z,0.00
2022-11-07T01:14:27.176Z,0.00
2022-11-07T01:15:27.180Z,0.00
2022-11-07T01:16:27.173Z,0.00
2022-11-07T01:17:27.176Z,0.00
2022-11-07T01:18:27.187Z,0.00
2022-11-07T01:19:27.172Z,0.00
2022-11-07T01:20:27.165Z,0.00
2022-11-07T01:21:27.160Z,0.00
2022-11-07T01:22:27.165Z,0.00
2022-11-07T01:23:27.164Z,0.00
2022-11-07T01:24:27.155Z,0.00
2022-11-07T01:25:27.159Z,0.00
2022-11-07T01:26:27.168Z,0.00
2022-11-07T01:27:27.154Z,0.00
2022-11-07T01:28:27.157Z,0.00
2022-11-07T01:29:27.150Z,0.00
2022-11-07T01:30:27.143Z,0.00
2022-11-07T01:31:27.151Z,0.00
2022-11-07T01:32:27.144Z,0.00
2022-11-07T01:33:27.139Z,0.00
2022-11-07T01:34:27.159Z,0.00
2022-11-07T01:35:27.135Z,0.00
2022-11-07T01:36:27.137Z,0.00
2022-11-07T01:37:27.159Z,0.00
2022-11-07T01:38:27.144Z,0.00
2022-11-07T01:39:27.129Z,0.00
2022-11-07T01:40:27.124Z,0.00
2022-11-07T01:41:27.147Z,0.00
2022-11-07T01:42:27.142Z,0.00
2022-11-07T01:43:27.118Z,0.00
2022-11-07T01:44:27.190Z,0.00
2022-11-07T01:45:27.133Z,0.00
2022-11-07T01:46:27.115Z,0.00
2022-11-07T01:47:27.137Z,0.00
2022-11-07T01:48:27.105Z,0.00
2022-11-07T01:49:27.114Z,0.00
2022-11-07T01:50:27.140Z,0.00
2022-11-07T01:51:27.103Z,0.00
2022-11-07T01:52:27.108Z,0.00
2022-11-07T01:53:27.107Z,0.00
2022-11-07T01:54:27.101Z,0.00
2022-11-07T01:55:27.101Z,0.00
2022-11-07T01:56:27.090Z,0.00
2022-11-07T01:57:27.149Z,0.00
2022-11-07T01:58:27.097Z,0.00
2022-11-07T01:59:27.086Z,0.00
2022-11-07T02:00:27.081Z,0.00
2022-11-07T02:01:27.248Z,0.00
2022-11-07T02:02:27.256Z,0.00
2022-11-07T02:03:27.075Z,0.00
2022-11-07T02:04:27.078Z,0.00
2022-11-07T02:05:27.093Z,0.00
2022-11-07T02:06:27.126Z,0.00
2022-11-07T02:07:27.073Z,0.00
2022-11-07T02:08:27.067Z,0.00
2022-11-07T02:09:27.068Z,0.00
2022-11-07T02:10:27.064Z,0.00
2022-11-07T02:11:27.067Z,0.00
2022-11-07T02:12:27.056Z,0.00
2022-11-07T02:13:27.057Z,0.00
2022-11-07T02:14:27.055Z,0.00
2022-11-07T02:15:27.051Z,0.00
2022-11-07T02:16:27.054Z,0.00
2022-11-07T02:17:27.052Z,0.00
2022-11-07T02:18:27.043Z,0.00
2022-11-07T02:19:27.047Z,0.00
2022-11-07T02:20:27.044Z,0.00
2022-11-07T02:21:27.043Z,0.00
2022-11-07T02:22:27.070Z,0.00
2022-11-07T02:23:27.038Z,0.00
2022-11-07T02:24:27.041Z,0.00
2022-11-07T02:25:27.033Z,0.00
2022-11-07T02:26:27.030Z,0.00
2022-11-07T02:27:27.030Z,0.00
2022-11-07T02:28:27.028Z,0.00
2022-11-07T02:29:27.027Z,0.00
2022-11-07T02:30:27.021Z,0.00
2022-11-07T02:31:27.022Z,0.00
2022-11-07T02:32:27.016Z,0.00
2022-11-07T02:33:27.016Z,0.00
2022-11-07T02:34:27.015Z,0.00
2022-11-07T02:35:27.011Z,0.00
2022-11-07T02:36:27.011Z,0.00
2022-11-07T02:37:27.007Z,0.00
2022-11-07T02:38:27.033Z,0.00
2022-11-07T02:39:27.003Z,0.00
2022-11-07T02:40:27.002Z,0.00
2022-11-07T02:41:26.995Z,0.00
2022-11-07T02:42:27.001Z,0.00
2022-11-07T02:43:26.998Z,0.00
2022-11-07T02:44:26.997Z,0.00
2022-11-07T02:45:27.096Z,0.00
2022-11-07T02:46:26.996Z,0.00
2022-11-07T02:47:26.987Z,0.00
2022-11-07T02:48:26.986Z,0.00
2022-11-07T02:49:27.031Z,0.00
2022-11-07T02:50:26.981Z,0.00
2022-11-07T02:51:26.976Z,0.00
2022-11-07T02:52:26.983Z,0.00
2022-11-07T02:53:26.975Z,0.00
2022-11-07T02:54:27.001Z,0.00
2022-11-07T02:55:26.971Z,0.00
2022-11-07T02:56:26.978Z,0.00
2022-11-07T02:57:26.970Z,0.00
2022-11-07T02:58:26.965Z,0.00
2022-11-07T02:59:27.373Z,0.00
2022-11-07T03:00:26.962Z,0.00
2022-11-07T03:01:27.094Z,0.00
2022-11-07T03:02:27.131Z,0.00
2022-11-07T03:03:26.956Z,0.00
2022-11-07T03:04:26.955Z,0.00
2022-11-07T03:05:26.955Z,0.00
2022-11-07T03:06:26.949Z,0.00
2022-11-07T03:07:26.947Z,0.00
2022-11-07T03:08:26.947Z,0.00
2022-11-07T03:09:26.941Z,0.00
2022-11-07T03:10:27.048Z,0.00
2022-11-07T03:11:26.943Z,0.00
2022-11-07T03:12:26.940Z,0.00
2022-11-07T03:13:26.933Z,0.00
2022-11-07T03:14:26.961Z,0.00
2022-11-07T03:15:26.930Z,0.00
2022-11-07T03:16:26.928Z,0.00
2022-11-07T03:17:26.930Z,0.00
2022-11-07T03:18:26.925Z,0.00
2022-11-07T03:19:26.923Z,0.00
2022-11-07T03:20:26.921Z,0.00
2022-11-07T03:21:26.920Z,0.00
2022-11-07T03:22:26.916Z,0.00
2022-11-07T03:23:26.915Z,0.00
2022-11-07T03:24:26.929Z,0.00
2022-11-07T03:25:26.907Z,0.00
2022-11-07T03:26:26.927Z,0.00
2022-11-07T03:27:26.905Z,0.00
2022-11-07T03:28:26.912Z,0.00
2022-11-07T03:29:26.902Z,0.00
2022-11-07T03:30:26.899Z,0.00
2022-11-07T03:31:26.908Z,0.00
2022-11-07T03:32:26.898Z,0.00
2022-11-07T03:33:26.896Z,0.00
2022-11-07T03:34:26.895Z,0.00
2022-11-07T03:35:26.886Z,0.00
2022-11-07T03:36:26.893Z,0.00
2022-11-07T03:37:26.889Z,0.00
2022-11-07T03:38:26.886Z,0.00
2022-11-07T03:39:26.892Z,0.00
2022-11-07T03:40:26.890Z,0.00
2022-11-07T03:41:26.884Z,0.00
2022-11-07T03:42:26.901Z,0.00
2022-11-07T03:43:26.878Z,0.00
2022-11-07T03:44:26.872Z,0.00
2022-11-07T03:45:26.875Z,0.00
2022-11-07T03:46:26.878Z,0.00
2022-11-07T03:47:26.868Z,0.00
2022-11-07T03:48:26.868Z,0.00
2022-11-07T03:49:26.913Z,0.00
2022-11-07T03:50:26.860Z,0.00
2022-11-07T03:51:26.862Z,0.00
2022-11-07T03:52:26.860Z,0.00
2022-11-07T03:53:27.446Z,0.00
2022-11-07T03:54:26.859Z,0.00
2022-11-07T03:55:26.852Z,0.00
2022-11-07T03:56:26.857Z,0.00
2022-11-07T03:57:26.846Z,0.00
2022-11-07T03:58:26.870Z,0.00
2022-11-07T03:59:26.842Z,0.00
2022-11-07T04:00:26.848Z,0.00
2022-11-07T04:01:27.012Z,0.00
2022-11-07T04:02:26.997Z,0.00
2022-11-07T04:03:26.836Z,0.00
2022-11-07T04:04:26.836Z,0.00
2022-11-07T04:05:26.841Z,0.00
2022-11-07T04:06:26.834Z,0.00
2022-11-07T04:07:26.830Z,0.00
2022-11-07T04:08:26.834Z,0.00
2022-11-07T04:09:26.825Z,0.00
2022-11-07T04:10:26.823Z,0.00
2022-11-07T04:11:26.826Z,0.00
2022-11-07T04:12:26.823Z,0.00
2022-11-07T04:13:26.817Z,0.00
2022-11-07T04:14:26.836Z,0.00
2022-11-07T04:15:26.815Z,0.00
2022-11-07T04:16:26.811Z,0.00
2022-11-07T04:17:26.810Z,0.00
2022-11-07T04:18:26.811Z,0.00
2022-11-07T04:19:26.806Z,0.00
2022-11-07T04:20:26.810Z,0.00
2022-11-07T04:21:26.809Z,0.00
2022-11-07T04:22:26.810Z,0.00
2022-11-07T04:23:26.801Z,0.00
2022-11-07T04:24:26.800Z,0.00
2022-11-07T04:25:26.797Z,0.00
2022-11-07T04:26:26.799Z,0.00
2022-11-07T04:27:26.796Z,0.00
2022-11-07T04:28:26.796Z,0.00
2022-11-07T04:29:26.790Z,0.00
2022-11-07T04:30:26.812Z,0.00
2022-11-07T04:31:26.785Z,0.00
2022-11-07T04:32:26.788Z,0.00
2022-11-07T04:33:26.784Z,0.00
2022-11-07T04:34:26.779Z,0.00
2022-11-07T04:35:26.778Z,0.00
2022-11-07T04:36:26.778Z,0.00
2022-11-07T04:37:26.792Z,0.00
2022-11-07T04:38:26.780Z,0.00
2022-11-07T04:39:26.776Z,0.00
2022-11-07T04:40:26.774Z,0.00
2022-11-07T04:41:26.765Z,0.00
2022-11-07T04:42:26.768Z,0.00
2022-11-07T04:43:26.765Z,0.00
2022-11-07T04:44:26.764Z,0.00
2022-11-07T04:45:26.761Z,0.00
2022-11-07T04:46:26.865Z,0.00
2022-11-07T04:47:26.756Z,0.00
2022-11-07T04:48:26.761Z,0.00
2022-11-07T04:49:26.806Z,0.00
2022-11-07T04:50:26.757Z,0.00
2022-11-07T04:51:26.757Z,0.00
2022-11-07T04:52:26.756Z,0.00
2022-11-07T04:53:26.746Z,0.00
2022-11-07T04:54:26.750Z,0.00
2022-11-07T04:55:26.753Z,0.00
2022-11-07T04:56:29.437Z,0.00
2022-11-07T04:57:26.743Z,0.00
2022-11-07T04:58:26.744Z,0.00
2022-11-07T04:59:26.740Z,0.00
2022-11-07T05:00:26.738Z,0.00
2022-11-07T05:01:26.785Z,0.00
2022-11-07T05:02:27.007Z,0.00
2022-11-07T05:03:26.734Z,0.00
2022-11-07T05:04:26.734Z,0.00
2022-11-07T05:05:26.728Z,0.00
2022-11-07T05:06:26.731Z,0.00
2022-11-07T05:07:26.727Z,0.00
2022-11-07T05:08:26.728Z,0.00
2022-11-07T05:09:26.724Z,0.00
2022-11-07T05:10:26.719Z,0.00
2022-11-07T05:11:26.739Z,0.00
2022-11-07T05:12:26.720Z,0.00
2022-11-07T05:13:26.737Z,0.00
2022-11-07T05:14:26.716Z,0.00
2022-11-07T05:15:26.715Z,0.00
2022-11-07T05:16:26.715Z,0.00
2022-11-07T05:17:28.120Z,0.00
2022-11-07T05:18:26.733Z,0.00
2022-11-07T05:19:26.707Z,0.00
2022-11-07T05:20:26.712Z,0.00
2022-11-07T05:21:26.706Z,0.00
2022-11-07T05:22:26.699Z,0.00
2022-11-07T05:23:26.699Z,0.00
2022-11-07T05:24:26.701Z,0.00
2022-11-07T05:25:26.697Z,0.00
2022-11-07T05:26:26.696Z,0.00
2022-11-07T05:27:26.694Z,0.00
2022-11-07T05:28:35.154Z,0.00
2022-11-07T05:29:26.700Z,0.00
2022-11-07T05:30:26.689Z,0.00
2022-11-07T05:31:26.689Z,0.00
2022-11-07T05:32:26.686Z,0.00
2022-11-07T05:33:26.687Z,0.00
2022-11-07T05:34:26.707Z,0.00
2022-11-07T05:35:26.682Z,0.00
2022-11-07T05:36:26.682Z,0.00
2022-11-07T05:37:26.675Z,0.00
2022-11-07T05:38:26.675Z,0.00
2022-11-07T05:39:26.673Z,0.00
2022-11-07T05:40:26.678Z,0.00
2022-11-07T05:41:26.678Z,0.00
2022-11-07T05:42:26.674Z,0.00
2022-11-07T05:43:26.669Z,0.00
2022-11-07T05:44:26.668Z,0.00
2022-11-07T05:45:26.667Z,0.00
2022-11-07T05:46:26.660Z,0.00
2022-11-07T05:47:26.671Z,0.00
2022-11-07T05:48:26.665Z,0.00
2022-11-07T05:49:26.663Z,0.00
2022-11-07T05:50:26.682Z,0.00
2022-11-07T05:51:26.653Z,0.00
2022-11-07T05:52:26.658Z,0.00
2022-11-07T05:53:26.712Z,0.00
2022-11-07T05:54:26.650Z,0.00
2022-11-07T05:55:26.652Z,0.00
2022-11-07T05:56:26.657Z,0.00
2022-11-07T05:57:26.644Z,0.00
2022-11-07T05:58:26.649Z,0.00
2022-11-07T05:59:26.659Z,0.00
2022-11-07T06:00:26.651Z,0.00
2022-11-07T06:01:26.668Z,0.00
2022-11-07T06:02:26.751Z,0.00
2022-11-07T06:03:26.638Z,0.00
2022-11-07T06:04:26.637Z,0.00
2022-11-07T06:05:26.635Z,0.00
2022-11-07T06:06:26.739Z,0.00
2022-11-07T06:07:26.635Z,0.00
2022-11-07T06:08:26.627Z,0.00
2022-11-07T06:09:26.630Z,0.00
2022-11-07T06:10:26.630Z,0.00
2022-11-07T06:11:26.625Z,0.00
2022-11-07T06:12:26.624Z,0.00
2022-11-07T06:13:26.625Z,0.00
2022-11-07T06:14:26.629Z,0.00
2022-11-07T06:15:26.625Z,0.00
2022-11-07T06:16:26.625Z,0.00
2022-11-07T06:17:26.627Z,5.63
2022-11-07T06:18:26.615Z,5.63
2022-11-07T06:19:26.616Z,5.63
2022-11-07T06:20:26.614Z,5.63
2022-11-07T06:21:26.610Z,5.63
2022-11-07T06:22:26.633Z,5.63
2022-11-07T06:23:26.605Z,5.63
2022-11-07T06:24:26.610Z,5.63
2022-11-07T06:25:26.606Z,5.63
2022-11-07T06:26:26.605Z,5.63
2022-11-07T06:27:26.605Z,5.63
2022-11-07T06:28:26.599Z,5.63
2022-11-07T06:29:26.597Z,5.63
2022-11-07T06:30:26.601Z,5.63
2022-11-07T06:31:26.594Z,11.25
2022-11-07T06:32:26.598Z,11.25
2022-11-07T06:33:26.594Z,11.25
2022-11-07T06:34:26.592Z,11.25
2022-11-07T06:35:26.592Z,11.25
2022-11-07T06:36:26.588Z,11.25
2022-11-07T06:37:26.594Z,16.88
2022-11-07T06:38:26.617Z,16.88
2022-11-07T06:39:26.580Z,16.88
2022-11-07T06:40:26.587Z,16.88
2022-11-07T06:41:26.582Z,16.88
2022-11-07T06:42:26.581Z,16.88
2022-11-07T06:43:26.874Z,16.88
2022-11-07T06:44:26.585Z,16.88
2022-11-07T06:45:26.576Z,16.88
2022-11-07T06:46:26.574Z,16.88
2022-11-07T06:47:26.572Z,22.50
2022-11-07T06:48:26.570Z,28.13
2022-11-07T06:49:26.618Z,28.13
2022-11-07T06:50:26.568Z,28.13
2022-11-07T06:51:26.563Z,28.13
2022-11-07T06:52:26.566Z,28.13
2022-11-07T06:53:26.567Z,28.13
2022-11-07T06:54:26.578Z,28.13
2022-11-07T06:55:26.559Z,28.13
2022-11-07T06:56:26.555Z,28.13
2022-11-07T06:57:26.556Z,28.13
2022-11-07T06:58:26.556Z,28.13
2022-11-07T06:59:26.557Z,28.13
2022-11-07T07:00:26.636Z,33.75
2022-11-07T07:01:26.689Z,33.75
2022-11-07T07:02:52.204Z,33.75
2022-11-07T07:03:26.554Z,39.38
2022-11-07T07:04:26.550Z,39.38
2022-11-07T07:05:26.544Z,39.38
2022-11-07T07:06:26.550Z,45.00
2022-11-07T07:07:26.546Z,45.00
2022-11-07T07:08:26.544Z,45.00
2022-11-07T07:09:26.540Z,45.00
2022-11-07T07:10:26.658Z,45.00
2022-11-07T07:11:26.539Z,50.63
2022-11-07T07:12:26.546Z,45.00
2022-11-07T07:13:26.542Z,45.00
2022-11-07T07:14:26.536Z,50.63
2022-11-07T07:15:26.536Z,56.25
2022-11-07T07:16:26.535Z,56.25
2022-11-07T07:17:26.536Z,50.63
2022-11-07T07:18:26.529Z,50.63
2022-11-07T07:19:26.525Z,50.63
2022-11-07T07:20:26.528Z,45.00
2022-11-07T07:21:26.528Z,50.63
2022-11-07T07:22:26.528Z,45.00
2022-11-07T07:23:26.522Z,45.00
2022-11-07T07:24:26.519Z,56.25
2022-11-07T07:25:26.518Z,56.25
2022-11-07T07:26:26.635Z,67.50
2022-11-07T07:27:26.519Z,73.13
2022-11-07T07:28:26.515Z,73.13
2022-11-07T07:29:26.515Z,67.50
2022-11-07T07:30:26.513Z,61.88
2022-11-07T07:31:26.517Z,73.13
2022-11-07T07:32:26.511Z,84.38
2022-11-07T07:33:26.510Z,90.00
2022-11-07T07:34:26.507Z,106.88
2022-11-07T07:35:26.513Z,135.00
2022-11-07T07:36:26.507Z,129.38
2022-11-07T07:37:26.506Z,140.63
2022-11-07T07:38:26.506Z,129.38
2022-11-07T07:39:26.500Z,129.38
2022-11-07T07:40:26.503Z,140.63
2022-11-07T07:41:26.498Z,146.25
2022-11-07T07:42:26.612Z,157.50
2022-11-07T07:43:26.494Z,163.13
2022-11-07T07:44:26.495Z,157.50
2022-11-07T07:45:26.529Z,168.75
2022-11-07T07:46:26.489Z,208.13
2022-11-07T07:47:26.493Z,225.00
2022-11-07T07:48:26.488Z,253.13
2022-11-07T07:49:26.487Z,281.25
2022-11-07T07:50:26.487Z,275.63
2022-11-07T07:51:26.490Z,241.88
2022-11-07T07:52:26.484Z,225.00
2022-11-07T07:53:26.482Z,202.50
2022-11-07T07:54:26.482Z,196.88
2022-11-07T07:55:26.484Z,191.25
2022-11-07T07:56:26.484Z,163.13
2022-11-07T07:57:26.482Z,140.63
2022-11-07T07:58:26.598Z,129.38
2022-11-07T07:59:26.480Z,140.63
2022-11-07T08:00:26.482Z,140.63
2022-11-07T08:01:26.570Z,140.63
2022-11-07T08:02:26.550Z,135.00
2022-11-07T08:03:29.309Z,135.00
2022-11-07T08:04:26.476Z,146.25
2022-11-07T08:05:26.474Z,140.63
2022-11-07T08:06:26.469Z,135.00
2022-11-07T08:07:26.473Z,157.50
2022-11-07T08:08:26.472Z,180.00
2022-11-07T08:09:26.468Z,202.50
2022-11-07T08:10:43.085Z,208.13
2022-11-07T08:11:26.463Z,236.25
2022-11-07T08:12:26.466Z,253.13
2022-11-07T08:13:26.460Z,253.13
2022-11-07T08:14:26.572Z,191.25
2022-11-07T08:15:26.463Z,174.38
2022-11-07T08:16:26.462Z,241.88
2022-11-07T08:17:26.466Z,258.75
2022-11-07T08:18:26.454Z,258.75
2022-11-07T08:19:26.461Z,219.38
2022-11-07T08:20:26.500Z,253.13
2022-11-07T08:21:26.455Z,219.38
2022-11-07T08:22:26.454Z,230.63
2022-11-07T08:23:26.453Z,258.75
2022-11-07T08:24:26.459Z,258.75
2022-11-07T08:25:26.450Z,270.00
2022-11-07T08:26:26.449Z,286.88
2022-11-07T08:27:26.452Z,292.50
2022-11-07T08:28:26.450Z,320.63
2022-11-07T08:29:26.448Z,326.25
2022-11-07T08:30:26.564Z,343.13
2022-11-07T08:31:26.450Z,376.88
2022-11-07T08:32:26.447Z,393.75
2022-11-07T08:33:26.502Z,438.75
2022-11-07T08:34:26.446Z,466.88
2022-11-07T08:35:26.442Z,399.38
2022-11-07T08:36:26.444Z,405.00
2022-11-07T08:37:26.444Z,410.63
2022-11-07T08:38:26.440Z,393.75
2022-11-07T08:39:26.442Z,320.63
2022-11-07T08:40:26.438Z,320.63
2022-11-07T08:41:26.447Z,309.38
2022-11-07T08:42:26.454Z,315.00
2022-11-07T08:43:26.440Z,320.63
2022-11-07T08:44:26.435Z,326.25
2022-11-07T08:45:26.436Z,286.88
2022-11-07T08:46:26.524Z,371.25
2022-11-07T08:47:26.434Z,461.25
2022-11-07T08:48:26.432Z,489.38
2022-11-07T08:49:26.433Z,472.50
2022-11-07T08:50:26.436Z,421.88
2022-11-07T08:51:26.433Z,421.88
2022-11-07T08:52:26.435Z,405.00
2022-11-07T08:53:26.430Z,354.38
2022-11-07T08:54:26.431Z,303.75
2022-11-07T08:55:26.428Z,275.63
2022-11-07T08:56:26.428Z,337.50
2022-11-07T08:57:26.428Z,393.75
2022-11-07T08:58:29.979Z,382.50
2022-11-07T08:59:26.435Z,337.50
2022-11-07T09:00:26.429Z,405.00
2022-11-07T09:01:26.561Z,596.25
2022-11-07T09:04:26.462Z,421.88
2022-11-07T09:05:26.431Z,360.00
2022-11-07T09:06:26.424Z,326.25
2022-11-07T09:07:26.425Z,275.63
2022-11-07T09:08:26.423Z,241.88
2022-11-07T09:09:26.422Z,208.13
2022-11-07T09:10:26.423Z,185.63
2022-11-07T09:11:26.423Z,208.13
2022-11-07T09:12:26.421Z,230.63
2022-11-07T09:13:26.420Z,258.75
2022-11-07T09:14:26.419Z,281.25
2022-11-07T09:15:26.424Z,331.88
2022-11-07T09:16:26.421Z,354.38
2022-11-07T09:17:26.419Z,298.13
2022-11-07T09:18:26.448Z,270.00
2022-11-07T09:19:26.420Z,298.13
2022-11-07T09:20:26.424Z,331.88
2022-11-07T09:21:26.417Z,354.38
2022-11-07T09:22:26.419Z,371.25
2022-11-07T09:23:26.422Z,405.00
2022-11-07T09:24:26.420Z,427.50
2022-11-07T09:25:26.418Z,388.13
2022-11-07T09:26:26.413Z,371.25
2022-11-07T09:27:26.422Z,326.25
2022-11-07T09:28:26.418Z,286.88
2022-11-07T09:29:26.416Z,281.25
2022-11-07T09:30:26.416Z,331.88
2022-11-07T09:31:26.415Z,371.25
2022-11-07T09:32:43.835Z,382.50
2022-11-07T09:33:26.417Z,410.63
2022-11-07T09:34:26.436Z,343.13
2022-11-07T09:35:26.415Z,326.25
2022-11-07T09:36:26.414Z,360.00
2022-11-07T09:37:26.410Z,376.88
2022-11-07T09:38:26.413Z,461.25
2022-11-07T09:39:26.419Z,506.25
2022-11-07T09:40:26.411Z,517.50
2022-11-07T09:41:26.413Z,562.50
2022-11-07T09:42:26.410Z,658.13
2022-11-07T09:43:26.410Z,703.13
2022-11-07T09:44:30.982Z,967.50
2022-11-07T09:45:26.411Z,1085.63
2022-11-07T09:46:26.418Z,1102.50
2022-11-07T09:47:26.418Z,995.63
2022-11-07T09:48:26.410Z,815.63
2022-11-07T09:49:26.408Z,776.25
2022-11-07T09:50:26.428Z,680.63
2022-11-07T09:51:26.408Z,776.25
2022-11-07T09:52:26.411Z,1074.38
2022-11-07T09:53:26.411Z,900.00
2022-11-07T09:54:26.414Z,635.63
2022-11-07T09:55:26.409Z,607.50
2022-11-07T09:56:26.413Z,573.75
2022-11-07T09:57:26.410Z,618.75
2022-11-07T09:58:26.409Z,500.63
2022-11-07T09:59:26.413Z,489.38
2022-11-07T10:00:26.414Z,534.38
2022-11-07T10:01:26.566Z,680.63
2022-11-07T10:02:26.525Z,967.50
2022-11-07T10:03:26.429Z,793.13
2022-11-07T10:04:27.194Z,663.75
2022-11-07T10:05:26.418Z,523.13
2022-11-07T10:06:26.525Z,545.63
2022-11-07T10:07:26.426Z,635.63
2022-11-07T10:08:26.415Z,776.25
2022-11-07T10:09:26.421Z,821.25
2022-11-07T10:10:26.422Z,838.13
2022-11-07T10:11:26.411Z,1215.00
2022-11-07T10:12:26.412Z,714.38
2022-11-07T10:13:26.417Z,416.25
2022-11-07T10:14:26.412Z,500.63
2022-11-07T10:15:26.415Z,1119.38
2022-11-07T10:16:26.421Z,843.75
2022-11-07T10:17:26.423Z,810.00
2022-11-07T10:18:26.412Z,798.75
2022-11-07T10:19:26.420Z,804.38
2022-11-07T10:20:26.529Z,939.38
2022-11-07T10:21:41.784Z,1524.38
2022-11-07T10:22:26.473Z,1575.00
2022-11-07T10:23:26.418Z,1665.00
2022-11-07T10:24:26.416Z,1068.75
2022-11-07T10:25:26.418Z,821.25
2022-11-07T10:26:26.417Z,810.00
2022-11-07T10:27:26.415Z,832.50
2022-11-07T10:28:26.421Z,1119.38
2022-11-07T10:29:26.419Z,1636.88
2022-11-07T10:30:26.428Z,1237.50
2022-11-07T10:31:26.427Z,866.25
2022-11-07T10:32:26.445Z,866.25
2022-11-07T10:33:26.425Z,922.50
2022-11-07T10:34:26.427Z,956.25
2022-11-07T10:35:26.424Z,950.63
2022-11-07T10:36:26.427Z,978.75
2022-11-07T10:37:26.427Z,1445.63
2022-11-07T10:38:26.531Z,2126.25
2022-11-07T10:39:26.431Z,2255.63
2022-11-07T10:40:26.428Z,2379.38
2022-11-07T10:41:26.437Z,2300.63
2022-11-07T10:42:26.437Z,2559.38
2022-11-07T10:43:26.440Z,2542.50
2022-11-07T10:44:26.441Z,2390.63
2022-11-07T10:45:26.443Z,2711.25
2022-11-07T10:46:26.446Z,2761.88
2022-11-07T10:47:26.454Z,2604.38
2022-11-07T10:48:26.447Z,2351.25
2022-11-07T10:49:26.455Z,2266.88
2022-11-07T10:50:26.451Z,2345.63
2022-11-07T10:51:26.459Z,2368.13
2022-11-07T10:52:26.462Z,2238.75
2022-11-07T10:53:26.475Z,2525.63
2022-11-07T10:54:26.490Z,2525.63
2022-11-07T10:55:26.477Z,2362.50
2022-11-07T10:56:26.805Z,1479.38
2022-11-07T10:57:26.487Z,2058.75
2022-11-07T10:58:26.489Z,2030.63
2022-11-07T10:59:30.123Z,1800.00
2022-11-07T11:00:26.499Z,2306.25
2022-11-07T11:01:26.754Z,2345.63
2022-11-07T11:02:26.602Z,2295.00
2022-11-07T11:03:41.932Z,2092.50
2022-11-07T11:04:26.519Z,2143.13
2022-11-07T11:05:26.529Z,1856.25
2022-11-07T11:06:26.524Z,2266.88
2022-11-07T11:07:28.504Z,2581.88
2022-11-07T11:08:26.540Z,2098.13
2022-11-07T11:09:26.541Z,2340.00
2022-11-07T11:10:26.598Z,2610.00
2022-11-07T11:11:26.557Z,2475.00
2022-11-07T11:12:26.568Z,2452.50
2022-11-07T11:13:26.572Z,2497.50
2022-11-07T11:14:26.576Z,2356.88
2022-11-07T11:15:29.954Z,2491.88
2022-11-07T11:16:26.594Z,2756.25
2022-11-07T11:17:26.630Z,2604.38
2022-11-07T11:18:26.604Z,2486.25
2022-11-07T11:19:26.612Z,2441.25
2022-11-07T11:20:26.622Z,2446.88
2022-11-07T11:21:26.630Z,2587.50
2022-11-07T11:22:26.635Z,2705.63
2022-11-07T11:23:26.639Z,2722.50
2022-11-07T11:24:26.649Z,2469.38
2022-11-07T11:25:26.655Z,2131.88
2022-11-07T11:26:26.693Z,2452.50
2022-11-07T11:27:26.675Z,2520.00
2022-11-07T11:28:26.679Z,1479.38
2022-11-07T11:29:26.687Z,1918.13
2022-11-07T11:30:26.698Z,776.25
2022-11-07T11:31:26.711Z,1355.63
2022-11-07T11:32:26.719Z,1220.63
2022-11-07T11:33:26.729Z,1479.38
2022-11-07T11:34:26.735Z,1546.88
2022-11-07T11:35:26.748Z,1293.75
2022-11-07T11:36:26.752Z,1636.88
2022-11-07T11:37:26.761Z,1794.38
2022-11-07T11:38:26.779Z,1996.88
2022-11-07T11:39:26.782Z,1861.88
2022-11-07T11:40:26.789Z,832.50
2022-11-07T11:41:26.800Z,1006.88
2022-11-07T11:42:26.822Z,1350.00
2022-11-07T11:43:26.809Z,911.25
2022-11-07T11:44:26.826Z,1125.00
2022-11-07T11:45:26.830Z,1192.50
2022-11-07T11:46:26.837Z,1254.38
2022-11-07T11:47:29.194Z,1333.13
2022-11-07T11:48:26.855Z,1496.25
2022-11-07T11:49:26.860Z,1681.88
2022-11-07T11:50:26.877Z,1760.63
2022-11-07T11:51:26.876Z,1861.88
2022-11-07T11:52:26.889Z,2019.38
2022-11-07T11:53:26.890Z,2171.25
2022-11-07T11:54:26.905Z,1873.13
2022-11-07T11:55:26.912Z,1569.38
2022-11-07T11:56:26.915Z,1321.88
2022-11-07T11:57:26.918Z,967.50
2022-11-07T11:58:26.990Z,877.50
2022-11-07T11:59:26.944Z,759.38
2022-11-07T12:00:26.951Z,691.88
2022-11-07T12:01:26.955Z,641.25
2022-11-07T12:02:27.045Z,601.88
2022-11-07T12:03:26.968Z,562.50
2022-11-07T12:04:26.975Z,540.00
2022-11-07T12:05:26.990Z,500.63
2022-11-07T12:06:26.986Z,506.25
2022-11-07T12:07:26.997Z,511.88
2022-11-07T12:08:27.001Z,500.63
2022-11-07T12:09:27.001Z,461.25
2022-11-07T12:10:27.020Z,517.50
2022-11-07T12:11:27.016Z,466.88
2022-11-07T12:12:27.024Z,416.25
2022-11-07T12:13:27.026Z,399.38
2022-11-07T12:14:27.061Z,399.38
2022-11-07T12:15:27.039Z,416.25
2022-11-07T12:16:27.042Z,360.00
2022-11-07T12:17:27.047Z,382.50
2022-11-07T12:18:27.052Z,410.63
2022-11-07T12:19:27.057Z,410.63
2022-11-07T12:20:27.067Z,371.25
2022-11-07T12:21:27.061Z,376.88
2022-11-07T12:22:27.068Z,365.63
2022-11-07T12:23:27.065Z,309.38
2022-11-07T12:24:27.076Z,326.25
2022-11-07T12:25:27.078Z,337.50
2022-11-07T12:26:27.083Z,382.50
2022-11-07T12:27:27.449Z,438.75
2022-11-07T12:28:27.086Z,416.25
2022-11-07T12:29:27.100Z,360.00
2022-11-07T12:30:27.123Z,315.00
2022-11-07T12:31:27.098Z,275.63
2022-11-07T12:32:27.100Z,264.38
2022-11-07T12:33:27.098Z,270.00
2022-11-07T12:34:27.116Z,281.25
2022-11-07T12:35:27.099Z,281.25
2022-11-07T12:36:27.113Z,315.00
2022-11-07T12:37:27.116Z,292.50
2022-11-07T12:38:27.107Z,303.75
2022-11-07T12:39:27.114Z,365.63
2022-11-07T12:40:27.132Z,421.88
2022-11-07T12:41:27.128Z,354.38
2022-11-07T12:42:27.123Z,410.63
2022-11-07T12:43:27.127Z,421.88
2022-11-07T12:44:27.127Z,421.88
2022-11-07T12:45:27.124Z,292.50
2022-11-07T12:46:27.148Z,326.25
2022-11-07T12:47:27.134Z,315.00
2022-11-07T12:48:27.136Z,286.88
2022-11-07T12:49:27.141Z,275.63
2022-11-07T12:50:27.134Z,247.50
2022-11-07T12:51:27.140Z,247.50
2022-11-07T12:52:27.142Z,225.00
2022-11-07T12:53:27.142Z,230.63
2022-11-07T12:54:27.146Z,236.25